KMNN/MNN METAR and TAF weather

Enter ICAO airport designator
Station Type Date Time Source
KMNN METAR 2021/09/14 15:53 UTC NOAA

KMNN 141553Z AUTO 22015G21KT 10SM SCT032 31/21 A2999 RMK AO2 SLP148 T03060206


Station Type Date Time Source
KMNN Decoded METAR 2021/09/14 15:53 UTC NOAA

MARION MUNICIPAL AIRPORT, OH, United States (KMNN) 40-37N 83-04W 301M
Sep 14, 2021 - 11:53 AM EDT / 2021.09.14 1553 UTC
Wind: from the SW (220 degrees) at 17 MPH (15 KT) gusting to 24 MPH (21 KT):0
Visibility: 10 mile(s):0
Sky conditions: partly cloudy
Temperature: 87.1 F (30.6 C)
Dew Point: 69.1 F (20.6 C)
Relative Humidity: 55%
Pressure (altimeter): 29.99 in. Hg (1015 hPa)
ob: KMNN 141553Z AUTO 22015G21KT 10SM SCT032 31/21 A2999 RMK AO2 SLP148 T03060206
cycle: 16

Station Type Date Time Source
KMNN TAF UTC NOAA

Error!

Example: see airport list